createdAt,value
2023-03-31T00:00:11.799Z,12.77
2023-03-31T00:02:41.523Z,16.55
2023-03-31T00:05:09.648Z,14.18
2023-03-31T00:07:38.064Z,14.30
2023-03-31T00:10:17.286Z,16.35
2023-03-31T00:12:45.753Z,15.85
2023-03-31T00:15:12.602Z,13.90
2023-03-31T00:17:39.916Z,14.27
2023-03-31T00:20:12.145Z,14.73
2023-03-31T00:22:42.324Z,16.85
2023-03-31T00:25:16.664Z,14.63
2023-03-31T00:27:44.963Z,14.85
2023-03-31T00:30:14.935Z,16.25
2023-03-31T00:32:42.007Z,16.52
2023-03-31T00:35:08.957Z,15.10
2023-03-31T00:37:35.920Z,15.40
2023-03-31T00:40:09.649Z,16.60
2023-03-31T00:42:41.750Z,17.08
2023-03-31T00:45:14.344Z,16.48
2023-03-31T00:47:45.760Z,14.75
2023-03-31T00:50:28.951Z,15.15
2023-03-31T00:53:08.826Z,16.23
2023-03-31T00:55:42.045Z,17.77
2023-03-31T00:58:09.746Z,17.35
2023-03-31T01:00:36.465Z,16.90
2023-03-31T01:03:06.806Z,14.40
2023-03-31T01:05:43.181Z,15.80
2023-03-31T01:08:10.820Z,16.27
2023-03-31T01:10:41.933Z,16.80
2023-03-31T01:13:11.170Z,16.63
2023-03-31T01:15:39.110Z,17.45
2023-03-31T01:18:07.084Z,15.23
2023-03-31T01:20:36.841Z,18.15
2023-03-31T01:23:35.511Z,16.35
2023-03-31T01:26:38.737Z,17.65
2023-03-31T01:29:13.407Z,16.92
2023-03-31T01:32:06.975Z,15.48
2023-03-31T01:34:40.283Z,15.55
2023-03-31T01:37:21.232Z,17.63
2023-03-31T01:40:09.748Z,16.77
2023-03-31T01:42:45.273Z,17.30
2023-03-31T01:45:38.113Z,15.50
2023-03-31T01:48:34.083Z,15.80
2023-03-31T01:51:10.242Z,16.35
2023-03-31T01:54:08.460Z,16.35
2023-03-31T01:56:57.095Z,16.60
2023-03-31T01:59:40.404Z,16.08
2023-03-31T02:02:16.674Z,17.27
2023-03-31T02:04:57.092Z,16.67
2023-03-31T02:07:54.092Z,16.63
2023-03-31T02:10:22.930Z,16.23
2023-03-31T02:12:51.463Z,14.85
2023-03-31T02:15:33.494Z,16.67
2023-03-31T02:18:03.690Z,16.38
2023-03-31T02:20:32.473Z,17.00
2023-03-31T02:23:00.043Z,13.57
2023-03-31T02:25:36.254Z,14.05
2023-03-31T02:28:09.230Z,14.00
2023-03-31T02:30:46.068Z,12.23
2023-03-31T02:33:12.757Z,11.68
2023-03-31T02:35:39.662Z,13.25
2023-03-31T02:38:06.805Z,13.45
2023-03-31T02:40:33.499Z,13.00
2023-03-31T02:43:00.351Z,11.43
2023-03-31T02:45:42.842Z,11.60
2023-03-31T02:48:23.172Z,12.23
2023-03-31T02:51:10.649Z,11.55
2023-03-31T02:53:52.552Z,11.57
2023-03-31T02:56:49.958Z,10.80
2023-03-31T02:59:24.978Z,11.98
2023-03-31T03:02:16.213Z,12.23
2023-03-31T03:04:55.546Z,10.45
2023-03-31T03:07:42.000Z,9.00
2023-03-31T03:10:48.270Z,9.38
2023-03-31T03:13:30.794Z,10.38
2023-03-31T03:16:24.504Z,8.90
2023-03-31T03:18:57.097Z,8.73
2023-03-31T03:21:23.909Z,8.48
2023-03-31T03:23:51.680Z,7.70
2023-03-31T03:26:21.488Z,8.57
2023-03-31T03:28:49.008Z,6.70
2023-03-31T03:31:15.735Z,6.75
2023-03-31T03:33:43.325Z,7.25
2023-03-31T03:36:10.358Z,7.70
2023-03-31T03:38:37.027Z,8.15
2023-03-31T03:41:03.941Z,7.35
2023-03-31T03:43:30.624Z,9.35
2023-03-31T03:45:57.242Z,6.78
2023-03-31T03:48:24.012Z,7.50
2023-03-31T03:50:51.218Z,8.07
2023-03-31T03:53:17.789Z,6.82
2023-03-31T03:55:45.450Z,6.95
2023-03-31T03:58:11.989Z,6.60
2023-03-31T04:00:38.521Z,7.07
2023-03-31T04:03:05.354Z,5.90
2023-03-31T04:05:31.946Z,6.60
2023-03-31T04:07:58.615Z,5.40
2023-03-31T04:10:25.262Z,5.60
2023-03-31T04:12:51.806Z,6.10
2023-03-31T04:15:18.360Z,6.00
2023-03-31T04:17:51.103Z,6.18
2023-03-31T04:20:17.751Z,7.10
2023-03-31T04:22:46.962Z,6.45
2023-03-31T04:25:17.689Z,5.40
2023-03-31T04:27:54.834Z,6.35
2023-03-31T04:30:23.693Z,5.70
2023-03-31T04:32:56.454Z,4.70
2023-03-31T04:35:24.893Z,5.65
2023-03-31T04:37:58.992Z,5.18
2023-03-31T04:40:26.575Z,5.13
2023-03-31T04:42:53.161Z,5.85
2023-03-31T04:45:19.734Z,5.50
2023-03-31T04:47:46.289Z,6.38
2023-03-31T04:50:16.156Z,5.80
2023-03-31T04:52:43.716Z,5.18
2023-03-31T04:55:10.379Z,6.78
2023-03-31T04:57:37.339Z,7.05
2023-03-31T05:00:08.226Z,5.15
2023-03-31T05:02:35.044Z,5.90
2023-03-31T05:05:01.718Z,6.10
2023-03-31T05:07:28.339Z,5.25
2023-03-31T05:09:54.860Z,5.95
2023-03-31T05:12:21.520Z,5.53
2023-03-31T05:14:48.165Z,5.32
2023-03-31T05:17:14.747Z,5.63
2023-03-31T05:19:41.342Z,5.60
2023-03-31T05:22:08.044Z,5.00
2023-03-31T05:24:38.232Z,6.10
2023-03-31T05:27:04.813Z,6.32
2023-03-31T05:29:31.367Z,7.13
2023-03-31T05:31:58.028Z,6.60
2023-03-31T05:34:24.607Z,6.78
2023-03-31T05:36:53.823Z,6.63
2023-03-31T05:39:21.856Z,6.13
2023-03-31T05:41:48.483Z,6.63
2023-03-31T05:44:15.457Z,6.40
2023-03-31T05:46:42.539Z,6.05
2023-03-31T05:49:09.155Z,5.50
2023-03-31T05:51:35.787Z,5.80
2023-03-31T05:54:02.549Z,4.47
2023-03-31T05:56:29.273Z,5.15
2023-03-31T05:58:55.814Z,5.80
2023-03-31T06:01:23.642Z,6.68
2023-03-31T06:03:50.614Z,5.25
2023-03-31T06:06:17.426Z,5.25
2023-03-31T06:08:45.874Z,5.50
2023-03-31T06:11:16.375Z,4.85
2023-03-31T06:13:43.311Z,6.07
2023-03-31T06:16:12.361Z,5.28
2023-03-31T06:18:40.072Z,4.50
2023-03-31T06:21:07.994Z,4.32
2023-03-31T06:23:35.287Z,4.80
2023-03-31T06:26:06.303Z,5.03
2023-03-31T06:28:36.500Z,4.67
2023-03-31T06:31:13.048Z,4.13
2023-03-31T06:33:41.759Z,4.22
2023-03-31T06:36:09.687Z,3.67
2023-03-31T06:38:38.388Z,4.53
2023-03-31T06:41:09.598Z,4.05
2023-03-31T06:43:36.293Z,3.93
2023-03-31T06:46:02.994Z,3.92
2023-03-31T06:48:29.748Z,4.30
2023-03-31T06:51:00.150Z,4.45
2023-03-31T06:53:27.078Z,3.22
2023-03-31T06:55:54.014Z,4.03
2023-03-31T06:58:22.557Z,4.15
2023-03-31T07:00:49.620Z,3.42
2023-03-31T07:03:22.687Z,3.25
2023-03-31T07:05:51.012Z,3.88
2023-03-31T07:08:18.543Z,4.43
2023-03-31T07:10:49.138Z,3.72
2023-03-31T07:13:17.601Z,3.95
2023-03-31T07:15:46.940Z,4.10
2023-03-31T07:18:15.712Z,3.60
2023-03-31T07:20:44.012Z,3.72
2023-03-31T07:23:10.886Z,4.68
2023-03-31T07:25:37.620Z,4.47
2023-03-31T07:28:06.123Z,4.68
2023-03-31T07:30:32.775Z,4.38
2023-03-31T07:32:59.571Z,4.50
2023-03-31T07:35:26.247Z,4.25
2023-03-31T07:37:52.904Z,4.10
2023-03-31T07:40:25.501Z,4.38
2023-03-31T07:42:53.094Z,4.95
2023-03-31T07:45:21.480Z,4.47
2023-03-31T07:47:48.492Z,4.18
2023-03-31T07:50:16.141Z,5.35
2023-03-31T07:52:46.154Z,4.38
2023-03-31T07:55:14.721Z,3.88
2023-03-31T07:57:42.158Z,4.18
2023-03-31T08:00:12.532Z,4.07
2023-03-31T08:02:42.926Z,4.00
2023-03-31T08:05:11.933Z,3.97
2023-03-31T08:07:41.650Z,3.40
2023-03-31T08:10:11.201Z,3.50
2023-03-31T08:12:37.844Z,3.33
2023-03-31T08:15:05.368Z,3.75
2023-03-31T08:17:31.950Z,3.40
2023-03-31T08:20:01.638Z,3.55
2023-03-31T08:22:30.526Z,4.07
2023-03-31T08:24:57.124Z,3.42
2023-03-31T08:27:24.148Z,3.50
2023-03-31T08:29:50.697Z,3.15
2023-03-31T08:32:17.421Z,2.45
2023-03-31T08:34:45.198Z,3.42
2023-03-31T08:37:11.815Z,2.50
2023-03-31T08:39:39.061Z,2.97
2023-03-31T08:42:16.837Z,2.30
2023-03-31T08:45:00.037Z,3.47
2023-03-31T08:47:29.497Z,2.95
2023-03-31T08:50:20.787Z,2.58
2023-03-31T08:53:00.150Z,2.80
2023-03-31T08:55:43.662Z,3.17
2023-03-31T08:58:36.227Z,3.30
2023-03-31T09:01:26.247Z,3.20
2023-03-31T09:04:02.646Z,4.32
2023-03-31T09:06:42.745Z,3.60
2023-03-31T09:09:25.682Z,2.78
2023-03-31T09:11:57.520Z,2.88
2023-03-31T09:15:02.592Z,2.53
2023-03-31T09:17:39.067Z,2.20
2023-03-31T09:20:13.460Z,1.80
2023-03-31T09:22:48.769Z,2.53
2023-03-31T09:25:28.370Z,2.03
2023-03-31T09:27:59.904Z,3.22
2023-03-31T09:30:29.609Z,2.50
2023-03-31T09:33:23.184Z,3.20
2023-03-31T09:35:51.926Z,2.20
2023-03-31T09:38:18.804Z,2.53
2023-03-31T09:40:45.945Z,2.92
2023-03-31T09:43:35.684Z,2.70
2023-03-31T09:46:09.826Z,2.10
2023-03-31T09:48:38.808Z,3.17
2023-03-31T09:51:07.818Z,2.85
2023-03-31T09:54:02.033Z,2.25
2023-03-31T09:56:35.987Z,2.42
2023-03-31T09:59:04.135Z,3.10
2023-03-31T10:01:32.010Z,2.90
2023-03-31T10:03:58.786Z,2.10
2023-03-31T10:06:26.654Z,2.92
2023-03-31T10:09:05.357Z,2.75
2023-03-31T10:11:32.271Z,3.15
2023-03-31T10:14:13.260Z,2.20
2023-03-31T10:16:53.367Z,2.10
2023-03-31T10:19:26.517Z,2.67
2023-03-31T10:22:01.650Z,2.38
2023-03-31T10:24:43.492Z,2.10
2023-03-31T10:27:20.035Z,2.45
2023-03-31T10:29:47.149Z,3.03
2023-03-31T10:32:30.605Z,2.80
2023-03-31T10:34:59.465Z,2.22
2023-03-31T10:37:28.555Z,2.63
2023-03-31T10:40:29.199Z,3.13
2023-03-31T10:43:23.469Z,2.83
2023-03-31T10:45:54.794Z,2.92
2023-03-31T10:48:33.248Z,2.60
2023-03-31T10:51:14.229Z,2.72
2023-03-31T10:53:43.924Z,2.13
2023-03-31T10:56:35.016Z,1.90
2023-03-31T10:59:27.754Z,2.00
2023-03-31T11:02:01.922Z,2.30
2023-03-31T11:04:50.430Z,2.38
2023-03-31T11:07:38.409Z,2.25
2023-03-31T11:10:13.928Z,2.92
2023-03-31T11:12:58.957Z,1.92
2023-03-31T11:16:02.618Z,2.13
2023-03-31T11:18:53.655Z,1.52
2023-03-31T11:21:47.822Z,2.20
2023-03-31T11:24:35.717Z,2.28
2023-03-31T11:27:58.593Z,2.25
2023-03-31T11:33:07.009Z,3.38
2023-03-31T11:36:22.237Z,2.03
2023-03-31T11:38:53.754Z,2.50
2023-03-31T11:41:30.126Z,2.95
2023-03-31T11:44:03.923Z,2.53
2023-03-31T11:46:49.456Z,2.70
2023-03-31T11:49:21.985Z,3.28
2023-03-31T11:52:00.500Z,2.22
2023-03-31T11:54:42.127Z,3.30
2023-03-31T11:57:31.607Z,2.30
2023-03-31T12:00:17.487Z,3.03
2023-03-31T12:02:59.378Z,2.60
2023-03-31T12:05:28.685Z,2.35
2023-03-31T12:08:11.742Z,3.03
2023-03-31T12:10:44.594Z,2.92
2023-03-31T12:13:44.599Z,2.80
2023-03-31T12:16:28.892Z,2.70
2023-03-31T12:19:22.711Z,2.85
2023-03-31T12:21:55.695Z,2.97
2023-03-31T12:24:22.305Z,2.83
2023-03-31T12:27:19.683Z,2.95
2023-03-31T12:29:57.812Z,2.80
2023-03-31T12:32:29.847Z,2.90
2023-03-31T12:35:05.746Z,2.20
2023-03-31T12:37:44.132Z,2.95
2023-03-31T12:40:45.847Z,2.70
2023-03-31T12:43:38.678Z,2.75
2023-03-31T12:46:36.782Z,4.10
2023-03-31T12:49:41.291Z,2.80
2023-03-31T12:52:18.227Z,2.85
2023-03-31T12:54:59.795Z,3.03
2023-03-31T12:57:27.188Z,2.95
2023-03-31T13:00:07.649Z,2.70
2023-03-31T13:02:34.459Z,3.22
2023-03-31T13:05:36.281Z,2.63
2023-03-31T13:08:08.595Z,3.85
2023-03-31T13:10:55.919Z,3.30
2023-03-31T13:13:22.591Z,2.50
2023-03-31T13:16:01.126Z,2.83
2023-03-31T13:18:32.533Z,2.80
2023-03-31T13:23:33.541Z,2.17
2023-03-31T13:26:00.852Z,2.75
2023-03-31T13:28:42.408Z,2.03
2023-03-31T13:31:15.114Z,2.28
2023-03-31T13:33:57.404Z,2.15
2023-03-31T13:36:48.814Z,3.55
2023-03-31T13:39:39.872Z,3.10
2023-03-31T13:42:36.898Z,2.80
2023-03-31T13:45:09.760Z,3.67
2023-03-31T13:47:53.699Z,3.28
2023-03-31T13:50:47.064Z,3.72
2023-03-31T13:53:28.754Z,2.80
2023-03-31T13:56:08.703Z,2.67
2023-03-31T13:58:50.706Z,2.88
2023-03-31T14:01:58.789Z,2.20
2023-03-31T14:04:46.731Z,2.92
2023-03-31T14:07:26.643Z,2.55
2023-03-31T14:09:54.099Z,2.70
2023-03-31T14:12:36.544Z,2.95
2023-03-31T14:15:05.685Z,2.55
2023-03-31T14:17:38.691Z,2.90
2023-03-31T14:20:30.227Z,4.00
2023-03-31T14:23:18.209Z,2.33
2023-03-31T14:26:02.532Z,2.33
2023-03-31T14:29:03.506Z,4.68
2023-03-31T14:31:55.103Z,4.03
2023-03-31T14:34:43.063Z,2.60
2023-03-31T14:37:17.736Z,2.40
2023-03-31T14:39:48.577Z,2.20
2023-03-31T14:42:26.946Z,1.60
2023-03-31T14:44:58.355Z,1.92
2023-03-31T14:47:30.314Z,1.60
2023-03-31T14:50:28.262Z,1.60
2023-03-31T14:52:55.582Z,1.58
2023-03-31T14:55:31.801Z,2.20
2023-03-31T14:58:14.166Z,1.58
2023-03-31T15:00:41.403Z,1.80
2023-03-31T15:03:16.397Z,3.47
2023-03-31T15:05:44.384Z,2.22
2023-03-31T15:08:16.143Z,3.05
2023-03-31T15:10:46.154Z,2.83
2023-03-31T15:13:19.258Z,2.53
2023-03-31T15:15:46.280Z,3.15
2023-03-31T15:18:14.899Z,3.08
2023-03-31T15:20:44.030Z,2.67
2023-03-31T15:23:31.014Z,2.35
2023-03-31T15:26:01.853Z,1.90
2023-03-31T15:28:33.914Z,2.33
2023-03-31T15:33:50.706Z,2.00
2023-03-31T15:36:17.385Z,2.00
2023-03-31T15:38:44.090Z,1.92
2023-03-31T15:41:17.539Z,2.78
2023-03-31T15:44:04.519Z,2.47
2023-03-31T15:46:43.394Z,3.10
2023-03-31T15:49:21.558Z,3.20
2023-03-31T15:51:50.707Z,2.88
2023-03-31T15:54:34.170Z,2.70
2023-03-31T15:57:06.973Z,2.60
2023-03-31T15:59:55.350Z,3.15
2023-03-31T16:02:34.562Z,3.25
2023-03-31T16:05:08.066Z,3.97
2023-03-31T16:07:37.545Z,4.30
2023-03-31T16:10:17.811Z,5.25
2023-03-31T16:13:02.969Z,8.90
2023-03-31T16:15:34.933Z,7.85
2023-03-31T16:18:13.125Z,7.18
2023-03-31T16:20:46.074Z,7.10
2023-03-31T16:23:26.336Z,6.05
2023-03-31T16:25:59.571Z,6.90
2023-03-31T16:28:30.859Z,7.03
2023-03-31T16:31:01.755Z,6.38
2023-03-31T16:33:31.738Z,19.23
2023-03-31T16:35:59.003Z,10.40
2023-03-31T16:38:29.800Z,7.07
2023-03-31T16:40:59.098Z,12.57
2023-03-31T16:43:28.273Z,7.53
2023-03-31T16:45:57.516Z,11.10
2023-03-31T16:48:26.432Z,21.35
2023-03-31T16:50:55.536Z,11.45
2023-03-31T16:53:26.461Z,16.80
2023-03-31T16:55:53.385Z,14.65
2023-03-31T16:58:20.329Z,11.95
2023-03-31T17:00:47.771Z,8.80
2023-03-31T17:03:19.162Z,10.38
2023-03-31T17:05:52.807Z,8.93
2023-03-31T17:08:27.240Z,26.23
2023-03-31T17:11:08.526Z,36.67
2023-03-31T17:13:34.958Z,35.03
2023-03-31T17:18:49.620Z,51.40
2023-03-31T17:21:20.438Z,85.65
2023-03-31T17:23:47.571Z,73.40
2023-03-31T17:26:15.421Z,81.10
2023-03-31T17:28:42.872Z,22.20
2023-03-31T17:31:18.720Z,139.25
2023-03-31T17:33:45.346Z,460.50
2023-03-31T17:36:12.545Z,152.10
2023-03-31T17:38:40.143Z,202.43
2023-03-31T17:41:09.220Z,163.45
2023-03-31T17:43:36.249Z,52.13
2023-03-31T17:46:09.945Z,68.80
2023-03-31T17:48:39.124Z,356.15
2023-03-31T17:51:24.242Z,405.25
2023-03-31T17:53:51.010Z,579.75
2023-03-31T17:56:17.885Z,358.65
2023-03-31T17:58:45.291Z,100.43
2023-03-31T18:01:12.664Z,204.57
2023-03-31T18:03:39.740Z,42.67
2023-03-31T18:06:11.763Z,30.80
2023-03-31T18:11:09.040Z,262.27
2023-03-31T18:13:41.338Z,222.15
2023-03-31T18:18:28.072Z,47.50
2023-03-31T18:20:55.401Z,118.88
2023-03-31T18:23:23.135Z,38.22
2023-03-31T18:25:50.087Z,55.28
2023-03-31T18:28:17.902Z,129.13
2023-03-31T18:30:44.827Z,265.58
2023-03-31T18:33:12.780Z,119.55
2023-03-31T18:35:39.979Z,44.30
2023-03-31T18:38:07.199Z,30.25
2023-03-31T18:40:33.990Z,174.07
2023-03-31T18:43:00.736Z,297.30
2023-03-31T18:45:28.141Z,207.23
2023-03-31T18:47:58.503Z,188.20
2023-03-31T18:50:30.573Z,76.63
2023-03-31T18:52:57.862Z,40.08
2023-03-31T18:55:24.589Z,65.47
2023-03-31T18:57:59.264Z,30.60
2023-03-31T19:00:30.227Z,110.15
2023-03-31T19:02:57.419Z,67.55
2023-03-31T19:05:24.146Z,35.40
2023-03-31T19:07:51.322Z,23.15
2023-03-31T19:10:18.202Z,18.08
2023-03-31T19:12:48.862Z,12.63
2023-03-31T19:15:16.565Z,99.90
2023-03-31T19:17:43.306Z,22.27
2023-03-31T19:20:16.950Z,22.30
2023-03-31T19:22:49.452Z,5.70
2023-03-31T19:25:22.753Z,17.17
2023-03-31T19:27:50.361Z,12.88
2023-03-31T19:30:22.744Z,91.80
2023-03-31T19:32:49.992Z,28.40
2023-03-31T19:35:18.405Z,19.17
2023-03-31T19:37:46.135Z,23.33
2023-03-31T19:40:14.637Z,13.88
2023-03-31T19:42:44.618Z,12.82
2023-03-31T19:45:14.166Z,11.50
2023-03-31T19:47:42.016Z,15.10
2023-03-31T19:50:13.226Z,15.98
2023-03-31T19:52:40.038Z,12.00
2023-03-31T19:55:07.231Z,20.00
2023-03-31T19:57:33.984Z,84.57
2023-03-31T20:00:01.322Z,49.42
2023-03-31T20:02:40.891Z,445.80
2023-03-31T20:05:08.123Z,362.50
2023-03-31T20:07:34.676Z,66.22
2023-03-31T20:10:03.939Z,62.28
2023-03-31T20:12:32.487Z,241.23
2023-03-31T20:15:01.767Z,413.40
2023-03-31T20:17:28.371Z,151.80
2023-03-31T20:20:01.769Z,121.70
2023-03-31T20:22:30.633Z,317.65
2023-03-31T20:24:58.750Z,98.22
2023-03-31T20:27:26.449Z,510.92
2023-03-31T20:29:56.503Z,488.63
2023-03-31T20:32:24.153Z,271.38
2023-03-31T20:34:50.833Z,32.38
2023-03-31T20:37:18.249Z,46.30
2023-03-31T20:39:45.577Z,46.88
2023-03-31T20:42:13.076Z,39.30
2023-03-31T20:44:39.962Z,350.05
2023-03-31T20:47:07.390Z,13.40
2023-03-31T20:49:34.150Z,11.32
2023-03-31T20:52:01.347Z,15.18
2023-03-31T20:54:28.037Z,15.25
2023-03-31T20:56:54.703Z,26.05
2023-03-31T20:59:24.352Z,18.60
2023-03-31T21:01:51.590Z,14.57
2023-03-31T21:04:18.267Z,17.00
2023-03-31T21:06:47.416Z,15.45
2023-03-31T21:09:18.996Z,13.18
2023-03-31T21:11:45.891Z,14.15
2023-03-31T21:14:16.871Z,13.57
2023-03-31T21:16:43.741Z,13.60
2023-03-31T21:19:10.696Z,10.95
2023-03-31T21:21:40.101Z,10.43
2023-03-31T21:24:07.986Z,10.07
2023-03-31T21:26:34.677Z,9.60
2023-03-31T21:29:01.260Z,9.18
2023-03-31T21:31:28.003Z,10.73
2023-03-31T21:33:57.603Z,14.10
2023-03-31T21:36:25.232Z,20.38
2023-03-31T21:38:57.128Z,16.52
2023-03-31T21:41:30.305Z,14.05
2023-03-31T21:44:00.496Z,13.52
2023-03-31T21:46:31.784Z,8.85
2023-03-31T21:48:58.589Z,7.85
2023-03-31T21:51:26.611Z,7.18
2023-03-31T21:53:55.728Z,4.88
2023-03-31T21:56:24.328Z,3.83
2023-03-31T21:58:51.633Z,4.22
2023-03-31T22:01:18.663Z,3.88
2023-03-31T22:03:45.675Z,3.28
2023-03-31T22:06:12.906Z,2.88
2023-03-31T22:08:39.856Z,2.80
2023-03-31T22:11:10.282Z,2.42
2023-03-31T22:13:37.223Z,2.33
2023-03-31T22:16:05.883Z,2.25
2023-03-31T22:18:32.617Z,2.78
2023-03-31T22:20:59.301Z,3.20
2023-03-31T22:23:27.505Z,3.58
2023-03-31T22:25:55.476Z,2.80
2023-03-31T22:28:22.133Z,3.15
2023-03-31T22:30:48.742Z,3.17
2023-03-31T22:33:17.867Z,2.47
2023-03-31T22:35:44.469Z,3.72
2023-03-31T22:40:40.388Z,2.70
2023-03-31T22:43:07.040Z,2.63
2023-03-31T22:45:37.706Z,2.20
2023-03-31T22:48:05.310Z,3.05
2023-03-31T22:50:32.685Z,2.95
2023-03-31T22:52:59.806Z,2.53
2023-03-31T22:55:26.630Z,2.60
2023-03-31T22:57:53.201Z,8.15
2023-03-31T23:00:19.855Z,3.97
2023-03-31T23:02:46.564Z,2.83
2023-03-31T23:05:13.178Z,3.58
2023-03-31T23:07:39.890Z,3.25
2023-03-31T23:10:07.163Z,3.53
2023-03-31T23:12:34.168Z,3.20
2023-03-31T23:15:03.759Z,2.97
2023-03-31T23:17:31.030Z,2.58
2023-03-31T23:19:57.588Z,2.40
2023-03-31T23:22:25.723Z,2.80
2023-03-31T23:24:52.513Z,4.18
2023-03-31T23:27:19.763Z,2.33
2023-03-31T23:29:46.627Z,2.00
2023-03-31T23:32:14.345Z,3.40
2023-03-31T23:34:41.827Z,2.78
2023-03-31T23:37:10.350Z,2.33
2023-03-31T23:39:38.715Z,1.92
2023-03-31T23:42:10.018Z,2.40
2023-03-31T23:44:39.539Z,1.97
2023-03-31T23:47:06.160Z,3.75
2023-03-31T23:49:33.351Z,1.90
2023-03-31T23:51:59.971Z,2.33
2023-03-31T23:54:27.230Z,3.67
2023-03-31T23:56:53.831Z,2.00
2023-03-31T23:59:20.620Z,2.65
